Time;durP1;ratioP1;P1;durP2;ratioP2;P2;SDS_P1;SDS_P2;PMS_P1;PMS_P2;Temp;Humidity;BMP_temperature;BMP_pressure;BME280_temperature;BME280_humidity;BME280_pressure;Samples;Min_cycle;Max_cycle;Signal;HPM_P1;HPM_P2
2020/12/12 00:01:32;;;;;;;20.30;14.27;;;4.50;99.90;;;;;;5067289;28;20249;-65
2020/12/12 00:03:58;;;;;;;20.17;13.57;;;4.60;99.90;;;;;;5073398;28;20185;-66
2020/12/12 00:06:23;;;;;;;20.50;14.23;;;4.60;99.90;;;;;;5068838;28;20178;-65
2020/12/12 00:08:49;;;;;;;24.33;15.43;;;4.60;99.90;;;;;;5073812;28;20553;-65
2020/12/12 00:11:15;;;;;;;20.97;13.73;;;4.60;99.90;;;;;;5059070;28;20186;-65
2020/12/12 00:13:41;;;;;;;18.50;12.43;;;4.70;99.90;;;;;;5053691;28;20254;-65
2020/12/12 00:16:06;;;;;;;18.67;13.43;;;4.70;99.90;;;;;;5070311;28;20174;-65
2020/12/12 00:18:33;;;;;;;19.30;12.63;;;4.70;99.90;;;;;;5073469;28;20552;-66
2020/12/12 00:20:59;;;;;;;19.73;13.50;;;4.70;99.90;;;;;;5057282;28;20565;-65
2020/12/12 00:23:24;;;;;;;21.47;13.53;;;4.70;99.90;;;;;;5053446;28;20664;-64
2020/12/12 00:25:51;;;;;;;19.93;13.83;;;4.70;99.90;;;;;;5053286;28;20222;-66
2020/12/12 00:28:17;;;;;;;19.07;13.50;;;4.70;99.90;;;;;;5052879;28;20667;-65
2020/12/12 00:30:42;;;;;;;17.47;12.53;;;4.70;99.90;;;;;;5064907;28;20202;-65
2020/12/12 00:33:08;;;;;;;21.43;13.27;;;4.60;99.90;;;;;;5073209;28;20166;-65
2020/12/12 00:35:34;;;;;;;31.13;17.77;;;4.70;99.90;;;;;;5062736;28;20726;-65
2020/12/12 00:37:59;;;;;;;25.00;14.60;;;4.70;99.90;;;;;;5053243;28;20583;-64
2020/12/12 00:40:25;;;;;;;22.60;14.10;;;4.70;99.90;;;;;;5060654;28;20198;-65
2020/12/12 00:42:51;;;;;;;16.53;12.37;;;4.60;99.90;;;;;;5073294;28;20166;-66
2020/12/12 00:45:16;;;;;;;16.37;12.10;;;4.70;99.90;;;;;;5066453;28;20579;-64
2020/12/12 00:47:42;;;;;;;17.63;12.23;;;4.70;99.90;;;;;;5053031;28;20178;-65
2020/12/12 00:50:07;;;;;;;18.37;12.13;;;4.70;99.90;;;;;;5056759;28;20190;-65
2020/12/12 00:52:33;;;;;;;16.83;12.30;;;4.70;99.90;;;;;;5072912;28;20174;-66
2020/12/12 00:54:59;;;;;;;19.53;12.00;;;4.70;99.90;;;;;;5071270;28;20170;-66
2020/12/12 00:57:24;;;;;;;14.80;11.90;;;4.80;99.90;;;;;;5072523;28;20698;-65
2020/12/12 00:59:50;;;;;;;18.00;12.33;;;4.80;99.90;;;;;;5071584;28;20214;-66
2020/12/12 01:02:16;;;;;;;17.40;12.90;;;4.80;99.90;;;;;;5052253;28;20256;-65
2020/12/12 01:04:41;;;;;;;16.00;10.93;;;4.80;99.90;;;;;;5055840;28;20315;-66
2020/12/12 01:07:07;;;;;;;16.17;12.20;;;4.80;99.90;;;;;;5072279;28;20186;-66
2020/12/12 01:09:33;;;;;;;17.07;11.47;;;4.80;99.90;;;;;;5057204;28;20760;-64
2020/12/12 01:11:58;;;;;;;17.80;12.37;;;4.90;99.90;;;;;;5052365;28;20175;-65
2020/12/12 01:14:24;;;;;;;16.77;11.80;;;4.90;99.90;;;;;;5065294;28;20647;-65
2020/12/12 01:16:50;;;;;;;18.90;11.73;;;4.90;99.90;;;;;;5072415;28;20605;-65
2020/12/12 01:19:16;;;;;;;17.80;11.37;;;4.90;99.90;;;;;;5070576;28;20190;-66
2020/12/12 01:21:41;;;;;;;15.57;11.83;;;5.00;99.90;;;;;;5071910;28;20658;-65
2020/12/12 01:24:07;;;;;;;17.53;12.00;;;5.00;99.90;;;;;;5062389;28;20651;-65
2020/12/12 01:26:32;;;;;;;19.57;11.80;;;5.00;99.90;;;;;;5052174;28;20167;-65
2020/12/12 01:28:59;;;;;;;16.47;11.10;;;5.10;99.90;;;;;;5059618;28;20675;-66
2020/12/12 01:31:25;;;;;;;19.70;11.93;;;5.10;99.90;;;;;;5071808;28;20228;-65
2020/12/12 01:33:51;;;;;;;21.10;14.33;;;5.10;99.90;;;;;;5066074;28;20171;-66
2020/12/12 01:36:17;;;;;;;17.60;12.37;;;5.10;99.90;;;;;;5051916;28;20179;-65
2020/12/12 01:38:43;;;;;;;19.57;13.03;;;5.10;99.90;;;;;;5055625;28;20197;-65
2020/12/12 01:41:09;;;;;;;17.47;12.43;;;5.10;99.90;;;;;;5071312;28;20174;-65
2020/12/12 01:43:34;;;;;;;24.10;14.07;;;5.20;99.90;;;;;;5069353;28;20201;-66
2020/12/12 01:46:00;;;;;;;17.87;11.33;;;5.20;99.90;;;;;;5051932;28;20185;-65
2020/12/12 01:48:26;;;;;;;15.63;11.03;;;5.20;99.90;;;;;;5051752;28;20170;-65
2020/12/12 01:50:51;;;;;;;17.13;10.80;;;5.20;99.90;;;;;;5071509;28;20197;-65
2020/12/12 01:53:18;;;;;;;14.80;10.80;;;5.20;99.90;;;;;;5064646;28;20179;-65
2020/12/12 01:55:48;;;;;;;14.67;10.33;;;5.20;99.90;;;;;;5051788;28;20170;-65
2020/12/12 01:58:15;;;;;;;12.87;9.90;;;5.20;99.90;;;;;;5057012;28;20297;-65
2020/12/12 02:00:42;;;;;;;15.40;10.77;;;5.20;99.90;;;;;;5071482;28;20227;-66
2020/12/12 02:03:10;;;;;;;14.43;10.63;;;5.30;99.90;;;;;;5063361;28;20652;-65
2020/12/12 02:05:40;;;;;;;14.83;11.10;;;5.30;99.90;;;;;;5050298;28;20171;-65
2020/12/12 02:08:18;;;;;;;14.00;10.30;;;5.30;99.90;;;;;;5056182;28;20209;-65
2020/12/12 02:10:47;;;;;;;15.93;10.87;;;5.30;99.90;;;;;;5070959;28;20201;-65
2020/12/12 02:13:15;;;;;;;12.40;9.80;;;5.30;99.90;;;;;;5066037;28;20213;-64
2020/12/12 02:15:41;;;;;;;15.20;10.73;;;5.40;99.90;;;;;;5051546;28;20177;-65
2020/12/12 02:18:08;;;;;;;13.60;9.47;;;5.40;99.90;;;;;;5054994;28;20609;-65
2020/12/12 02:20:34;;;;;;;14.20;10.03;;;5.40;99.90;;;;;;5071098;28;20201;-66
2020/12/12 02:23:00;;;;;;;13.00;9.97;;;5.40;99.90;;;;;;5069001;28;20262;-66
2020/12/12 02:25:26;;;;;;;14.40;10.70;;;5.40;99.90;;;;;;5050098;28;20186;-65
2020/12/12 02:27:55;;;;;;;16.23;9.40;;;5.40;99.90;;;;;;5051937;28;20167;-65
2020/12/12 02:30:21;;;;;;;13.00;10.20;;;5.50;99.90;;;;;;5070966;28;20254;-66
2020/12/12 02:32:47;;;;;;;13.77;10.63;;;5.50;99.90;;;;;;5053376;28;20179;-66
2020/12/12 02:35:13;;;;;;;14.87;10.40;;;5.50;99.90;;;;;;5051244;28;20178;-66
2020/12/12 02:37:39;;;;;;;11.90;9.37;;;5.50;99.90;;;;;;5067109;28;20198;-66
2020/12/12 02:40:05;;;;;;;15.97;10.37;;;5.50;99.90;;;;;;5069677;28;20675;-66
2020/12/12 02:42:31;;;;;;;12.17;9.50;;;5.50;99.90;;;;;;5056653;28;20187;-66
2020/12/12 02:44:56;;;;;;;13.47;10.27;;;5.50;99.90;;;;;;5051233;28;20171;-66
2020/12/12 02:47:23;;;;;;;12.43;9.43;;;5.50;99.90;;;;;;5063482;28;20189;-65
2020/12/12 02:50:11;;;;;;;13.13;9.37;;;5.60;99.90;;;;;;5071189;28;20189;-66
2020/12/12 02:52:38;;;;;;;12.30;9.20;;;5.50;99.90;;;;;;5061122;28;20209;-66
2020/12/12 02:55:05;;;;;;;12.80;10.00;;;5.60;99.90;;;;;;5056088;28;20171;-65
2020/12/12 02:57:31;;;;;;;13.47;10.17;;;5.60;99.90;;;;;;5075087;28;20229;-66
2020/12/12 02:59:57;;;;;;;13.63;10.13;;;5.60;99.90;;;;;;5074634;28;20209;-66
2020/12/12 03:02:23;;;;;;;13.30;9.70;;;5.60;99.90;;;;;;5073922;28;20181;-66
2020/12/12 03:04:48;;;;;;;12.53;10.07;;;5.60;99.90;;;;;;5074192;28;20249;-66
2020/12/12 03:07:14;;;;;;;14.20;10.00;;;5.60;99.90;;;;;;5056578;28;20182;-65
2020/12/12 03:09:39;;;;;;;14.60;10.00;;;5.60;99.90;;;;;;5055077;28;20194;-66
2020/12/12 03:12:05;;;;;;;15.03;11.03;;;5.60;99.90;;;;;;5070562;28;20206;-66
2020/12/12 03:14:31;;;;;;;12.23;9.53;;;5.70;99.90;;;;;;5074698;28;20181;-66
2020/12/12 03:16:56;;;;;;;12.73;9.90;;;5.70;99.90;;;;;;5060004;28;20210;-65
2020/12/12 03:19:22;;;;;;;13.47;10.03;;;5.70;99.90;;;;;;5054659;28;20210;-66
2020/12/12 03:21:48;;;;;;;15.43;10.50;;;5.70;99.90;;;;;;5066982;28;20266;-66
2020/12/12 03:24:14;;;;;;;14.00;10.10;;;5.70;99.90;;;;;;5074582;28;20179;-66
2020/12/12 03:26:39;;;;;;;14.13;10.00;;;5.70;99.90;;;;;;5062098;28;20183;-66
2020/12/12 03:29:05;;;;;;;14.47;11.23;;;5.70;99.90;;;;;;5054588;28;20273;-66
2020/12/12 03:31:31;;;;;;;14.70;10.07;;;5.70;99.90;;;;;;5065010;28;20647;-66
2020/12/12 03:33:56;;;;;;;13.77;10.10;;;5.70;99.90;;;;;;5074530;28;20177;-65
2020/12/12 03:36:22;;;;;;;16.97;10.77;;;5.70;99.90;;;;;;5066408;28;20669;-66
2020/12/12 03:38:47;;;;;;;14.37;10.77;;;5.70;99.90;;;;;;5054266;28;20256;-66
2020/12/12 03:41:13;;;;;;;14.97;10.33;;;5.70;99.90;;;;;;5059507;28;20170;-66
2020/12/12 03:43:39;;;;;;;14.87;10.93;;;5.80;99.90;;;;;;5074589;28;20181;-66
2020/12/12 03:46:04;;;;;;;14.07;10.27;;;5.80;99.90;;;;;;5061489;28;20174;-65
2020/12/12 03:48:30;;;;;;;14.83;11.40;;;5.80;99.90;;;;;;5054016;28;20181;-66
2020/12/12 03:50:56;;;;;;;15.53;11.10;;;5.70;99.90;;;;;;5064331;28;20194;-65
2020/12/12 03:53:21;;;;;;;13.97;10.63;;;5.70;99.90;;;;;;5074220;28;20186;-65
2020/12/12 03:55:47;;;;;;;15.13;11.10;;;5.70;99.90;;;;;;5072551;28;20177;-64
2020/12/12 03:58:12;;;;;;;16.17;11.10;;;5.70;99.90;;;;;;5074085;28;20559;-65
2020/12/12 04:00:38;;;;;;;14.97;10.97;;;5.70;99.90;;;;;;5066052;28;20242;-66
2020/12/12 04:03:04;;;;;;;15.73;11.80;;;5.70;99.90;;;;;;5057180;28;20202;-65
2020/12/12 04:05:29;;;;;;;16.37;11.17;;;5.60;99.90;;;;;;5073920;28;20171;-65
2020/12/12 04:07:55;;;;;;;17.47;11.80;;;5.60;99.90;;;;;;5071447;28;20178;-65
2020/12/12 04:10:20;;;;;;;16.47;11.33;;;5.60;99.90;;;;;;5053172;28;20573;-65
2020/12/12 04:12:46;;;;;;;19.07;12.60;;;5.60;99.90;;;;;;5067286;28;20174;-66
2020/12/12 04:15:12;;;;;;;18.30;12.50;;;5.60;99.90;;;;;;5073617;28;20183;-65
2020/12/12 04:17:37;;;;;;;18.60;12.00;;;5.60;99.90;;;;;;5061036;28;20210;-66
2020/12/12 04:20:03;;;;;;;18.60;12.27;;;5.60;99.90;;;;;;5053212;28;20194;-65
2020/12/12 04:22:29;;;;;;;18.30;12.13;;;5.50;99.90;;;;;;5063904;28;20182;-65
2020/12/12 04:24:54;;;;;;;19.07;12.60;;;5.50;99.90;;;;;;5073580;28;20170;-66
2020/12/12 04:27:20;;;;;;;18.57;13.60;;;5.60;99.90;;;;;;5064376;28;20183;-66
2020/12/12 04:29:45;;;;;;;20.70;13.27;;;5.50;99.90;;;;;;5053393;28;20557;-65
2020/12/12 04:32:11;;;;;;;19.93;13.17;;;5.50;99.90;;;;;;5060008;28;20170;-66
2020/12/12 04:34:37;;;;;;;21.30;13.47;;;5.50;99.90;;;;;;5073326;28;20674;-66
2020/12/12 04:37:02;;;;;;;22.90;14.13;;;5.50;99.90;;;;;;5067575;28;20592;-65
2020/12/12 04:39:28;;;;;;;18.73;14.27;;;5.60;99.90;;;;;;5056266;28;20244;-66
2020/12/12 04:41:55;;;;;;;20.80;13.40;;;5.50;99.90;;;;;;5073053;28;20514;-65
2020/12/12 04:44:21;;;;;;;22.47;14.50;;;5.60;99.90;;;;;;5071192;28;20236;-66
2020/12/12 04:46:47;;;;;;;24.00;14.40;;;5.60;99.90;;;;;;5053265;28;20171;-65
2020/12/12 04:49:13;;;;;;;22.27;13.57;;;5.60;99.90;;;;;;5052923;28;20197;-66
2020/12/12 04:51:39;;;;;;;21.70;13.90;;;5.60;99.90;;;;;;5072696;28;20193;-66
2020/12/12 04:54:08;;;;;;;23.40;13.83;;;5.60;99.90;;;;;;5072981;28;20184;-65
2020/12/12 04:56:35;;;;;;;22.43;15.43;;;5.70;99.90;;;;;;5053643;28;20648;-66
2020/12/12 04:59:03;;;;;;;23.23;14.77;;;5.70;99.90;;;;;;5053138;28;20273;-64
2020/12/12 05:01:32;;;;;;;24.00;14.50;;;5.80;99.90;;;;;;5070210;28;20174;-65
2020/12/12 05:04:01;;;;;;;26.30;14.17;;;5.80;99.90;;;;;;5072892;28;20165;-65
2020/12/12 05:06:30;;;;;;;26.87;15.40;;;5.80;99.90;;;;;;5070837;28;20178;-65
2020/12/12 05:08:56;;;;;;;24.13;15.20;;;5.80;99.90;;;;;;5072560;28;20170;-65
2020/12/12 05:11:23;;;;;;;23.47;14.37;;;5.80;99.90;;;;;;5056295;28;20186;-65
2020/12/12 05:13:49;;;;;;;22.03;14.23;;;5.90;99.90;;;;;;5051877;28;20179;-65
2020/12/12 05:16:15;;;;;;;19.27;14.37;;;5.90;99.90;;;;;;5065972;28;20261;-66
2020/12/12 05:18:42;;;;;;;25.23;14.63;;;5.90;99.90;;;;;;5072181;28;20296;-65
2020/12/12 05:21:09;;;;;;;23.67;15.20;;;6.00;99.90;;;;;;5070281;28;20177;-65
2020/12/12 05:23:35;;;;;;;27.20;15.50;;;6.00;99.90;;;;;;5072390;28;20578;-65
2020/12/12 05:26:01;;;;;;;27.80;15.50;;;6.00;99.90;;;;;;5061116;28;20178;-65
2020/12/12 05:28:27;;;;;;;25.63;16.23;;;6.00;99.90;;;;;;5052031;28;20183;-65
2020/12/12 05:30:53;;;;;;;24.63;14.57;;;6.00;99.90;;;;;;5061069;28;20198;-66
2020/12/12 05:33:22;;;;;;;29.73;16.33;;;6.00;99.90;;;;;;5072401;28;20201;-65
2020/12/12 05:35:49;;;;;;;29.17;15.87;;;6.00;99.90;;;;;;5063832;28;20183;-65
2020/12/12 05:38:14;;;;;;;27.17;15.30;;;6.00;99.90;;;;;;5051978;28;20209;-66
2020/12/12 05:40:42;;;;;;;25.23;15.00;;;6.00;99.90;;;;;;5052841;28;20282;-65
2020/12/12 05:43:12;;;;;;;27.87;16.07;;;6.10;99.90;;;;;;5051910;28;20221;-65
2020/12/12 05:45:40;;;;;;;25.53;14.53;;;6.00;99.90;;;;;;5057457;28;20658;-65
2020/12/12 05:48:07;;;;;;;22.77;14.33;;;6.10;99.90;;;;;;5071901;28;20702;-65
2020/12/12 05:50:34;;;;;;;27.20;16.00;;;6.10;99.90;;;;;;5066743;28;20447;-65
2020/12/12 05:53:00;;;;;;;24.00;15.00;;;6.10;99.90;;;;;;5051957;28;20175;-65
2020/12/12 05:55:33;;;;;;;26.40;16.27;;;6.10;99.90;;;;;;5054196;28;20228;-65
2020/12/12 05:58:00;;;;;;;23.63;14.33;;;6.10;99.90;;;;;;5071727;28;20292;-65
2020/12/12 06:00:27;;;;;;;27.83;16.17;;;6.10;99.90;;;;;;5068843;28;20801;-65
2020/12/12 06:02:56;;;;;;;23.47;14.83;;;6.10;99.90;;;;;;5051850;28;20175;-66
2020/12/12 06:05:25;;;;;;;22.30;14.23;;;6.10;99.90;;;;;;5052453;28;20229;-65
2020/12/12 06:07:59;;;;;;;24.70;15.00;;;6.10;99.90;;;;;;5032910;28;20261;-65
2020/12/12 06:10:28;;;;;;;27.30;16.17;;;6.10;99.90;;;;;;5068034;28;20208;-65
2020/12/12 06:13:01;;;;;;;28.93;16.67;;;6.10;99.90;;;;;;5063409;28;20182;-65
2020/12/12 06:15:40;;;;;;;23.70;14.63;;;6.10;99.90;;;;;;5050488;28;20443;-65
2020/12/12 06:18:31;;;;;;;24.23;15.50;;;6.10;99.90;;;;;;5060723;28;20732;-65
2020/12/12 06:21:05;;;;;;;23.80;15.00;;;6.10;99.90;;;;;;5071373;28;20194;-65
2020/12/12 06:23:36;;;;;;;26.93;15.77;;;6.10;99.90;;;;;;5059120;28;20209;-65
2020/12/12 06:26:01;;;;;;;21.77;15.70;;;6.10;99.90;;;;;;5051311;28;20316;-65
2020/12/12 06:28:30;;;;;;;26.03;15.67;;;6.10;99.90;;;;;;5062311;28;20701;-65
2020/12/12 06:30:56;;;;;;;25.03;15.27;;;6.10;99.90;;;;;;5071240;28;20202;-65
2020/12/12 06:33:22;;;;;;;24.43;14.77;;;6.10;99.90;;;;;;5061198;28;20239;-65
2020/12/12 06:35:48;;;;;;;25.47;15.03;;;6.10;99.90;;;;;;5051442;28;20306;-65
2020/12/12 06:38:25;;;;;;;22.47;14.77;;;6.10;99.90;;;;;;5067914;28;20202;-65
2020/12/12 06:40:53;;;;;;;26.57;15.73;;;6.10;99.90;;;;;;5071024;28;20670;-65
2020/12/12 06:43:26;;;;;;;24.13;15.63;;;6.00;99.90;;;;;;5053809;28;20202;-66
2020/12/12 06:45:52;;;;;;;21.00;14.80;;;6.00;99.90;;;;;;5044903;28;20187;-65
2020/12/12 06:48:25;;;;;;;26.27;14.77;;;6.00;99.90;;;;;;5035335;28;20194;-64
2020/12/12 06:50:50;;;;;;;23.37;15.33;;;6.00;99.90;;;;;;5031036;28;20203;-65
2020/12/12 06:53:27;;;;;;;23.97;15.17;;;5.90;99.90;;;;;;5047221;28;20229;-65
2020/12/12 06:56:15;;;;;;;25.10;15.47;;;5.90;99.90;;;;;;5051200;28;20254;-65
2020/12/12 06:58:44;;;;;;;25.33;15.03;;;5.90;99.90;;;;;;5069044;28;20202;-65
2020/12/12 07:01:28;;;;;;;29.10;16.53;;;5.90;99.90;;;;;;5070817;28;20559;-65
2020/12/12 07:04:02;;;;;;;29.13;16.03;;;6.00;99.90;;;;;;5062059;28;20202;-65
2020/12/12 07:06:30;;;;;;;30.00;16.23;;;5.90;99.90;;;;;;5051278;28;20531;-65
2020/12/12 07:09:07;;;;;;;28.47;16.23;;;6.00;99.90;;;;;;5070421;28;20549;-65
2020/12/12 07:11:33;;;;;;;25.00;15.97;;;6.00;99.90;;;;;;5070721;28;20669;-65
2020/12/12 07:14:00;;;;;;;29.60;16.13;;;5.90;99.90;;;;;;5051422;28;20183;-65
2020/12/12 07:16:27;;;;;;;27.00;16.23;;;5.90;99.90;;;;;;5050768;28;20174;-65
2020/12/12 07:18:53;;;;;;;31.50;15.83;;;5.90;99.90;;;;;;5068543;28;20228;-65
2020/12/12 07:21:19;;;;;;;31.90;18.00;;;5.90;99.90;;;;;;5071013;28;20167;-65
2020/12/12 07:23:48;;;;;;;26.67;16.70;;;5.90;99.90;;;;;;5054330;28;20181;-65
2020/12/12 07:26:15;;;;;;;32.13;18.30;;;6.00;99.90;;;;;;5050705;28;20175;-65
2020/12/12 07:28:41;;;;;;;35.53;19.30;;;6.00;99.90;;;;;;5065489;28;20178;-65
2020/12/12 07:31:07;;;;;;;32.43;18.33;;;6.00;99.90;;;;;;5058287;28;20591;-64
2020/12/12 07:33:33;;;;;;;32.73;16.57;;;6.00;99.90;;;;;;5050758;28;20181;-65
2020/12/12 07:35:59;;;;;;;27.50;16.73;;;6.00;99.90;;;;;;5060967;28;20218;-65
2020/12/12 07:38:25;;;;;;;29.93;16.87;;;6.00;99.90;;;;;;5072668;28;20201;-65
2020/12/12 07:40:51;;;;;;;31.60;18.40;;;6.00;99.90;;;;;;5064911;28;20679;-65
2020/12/12 07:43:17;;;;;;;31.87;17.47;;;6.00;99.90;;;;;;5053969;28;20167;-65
2020/12/12 07:48:23;;;;;;;30.00;17.10;;;6.00;99.90;;;;;;5073980;28;20174;-65
2020/12/12 07:50:49;;;;;;;32.20;18.80;;;6.00;99.90;;;;;;5066110;28;20293;-65
2020/12/12 07:53:16;;;;;;;34.33;17.93;;;6.00;99.90;;;;;;5053907;28;20171;-65
2020/12/12 07:55:48;;;;;;;33.77;17.30;;;6.00;99.90;;;;;;5055237;28;20178;-65
2020/12/12 07:58:15;;;;;;;32.27;18.60;;;6.10;99.90;;;;;;5053794;28;20289;-65
2020/12/12 08:00:41;;;;;;;28.77;17.90;;;6.10;99.90;;;;;;5066824;28;20205;-65
2020/12/12 08:03:06;;;;;;;31.20;18.90;;;6.10;99.90;;;;;;5073047;28;20614;-65
2020/12/12 08:05:32;;;;;;;30.37;16.63;;;6.20;99.90;;;;;;5061827;28;20175;-65
2020/12/12 08:07:58;;;;;;;32.10;18.03;;;6.20;99.90;;;;;;5053818;28;20171;-65
2020/12/12 08:10:23;;;;;;;31.93;18.33;;;6.20;99.90;;;;;;5063356;28;20580;-65
2020/12/12 08:12:49;;;;;;;34.57;18.07;;;6.30;99.90;;;;;;5073571;28;20178;-64
2020/12/12 08:15:28;;;;;;;35.20;19.47;;;6.20;99.90;;;;;;5064890;28;20175;-65
2020/12/12 08:17:54;;;;;;;36.10;19.93;;;6.20;99.90;;;;;;5053617;28;20199;-65
2020/12/12 08:20:29;;;;;;;35.67;18.87;;;6.20;99.90;;;;;;5061469;28;20563;-65
2020/12/12 08:22:56;;;;;;;37.40;18.47;;;6.20;99.90;;;;;;5073617;28;20586;-64
2020/12/12 08:25:22;;;;;;;31.70;18.67;;;6.30;99.90;;;;;;5055821;28;20186;-65
2020/12/12 08:27:48;;;;;;;32.83;18.67;;;6.40;99.90;;;;;;5053912;28;20167;-65
2020/12/12 08:30:14;;;;;;;34.27;18.50;;;6.40;99.90;;;;;;5054583;28;20206;-65
2020/12/12 08:32:46;;;;;;;32.23;18.37;;;6.40;99.90;;;;;;5053905;28;20171;-65
2020/12/12 08:35:26;;;;;;;31.33;18.67;;;6.40;99.90;;;;;;5068479;28;20178;-65
2020/12/12 08:37:55;;;;;;;30.67;17.03;;;6.50;99.90;;;;;;5073358;28;20210;-65
2020/12/12 08:40:21;;;;;;;27.47;15.87;;;6.50;99.90;;;;;;5057039;28;20201;-65
2020/12/12 08:42:56;;;;;;;27.23;16.20;;;6.50;99.90;;;;;;5053154;28;20352;-65
2020/12/12 08:45:22;;;;;;;27.00;15.93;;;6.50;99.90;;;;;;5067835;28;20518;-65
2020/12/12 08:48:02;;;;;;;28.30;16.13;;;6.50;99.90;;;;;;5073690;28;20177;-65
2020/12/12 08:50:31;;;;;;;28.50;15.83;;;6.60;99.90;;;;;;5057140;28;20202;-66
2020/12/12 08:53:17;;;;;;;28.63;16.70;;;6.60;99.90;;;;;;5053038;28;20166;-66
2020/12/12 08:56:05;;;;;;;30.23;17.10;;;6.60;99.90;;;;;;5065376;28;20182;-65
2020/12/12 08:58:32;;;;;;;30.43;17.43;;;6.50;99.90;;;;;;5072605;28;20198;-65
2020/12/12 09:01:15;;;;;;;27.27;16.90;;;6.50;99.90;;;;;;5070908;28;20209;-65
2020/12/12 09:04:09;;;;;;;26.70;17.20;;;6.60;99.90;;;;;;5072181;28;20171;-65
2020/12/12 09:06:41;;;;;;;27.23;16.83;;;6.60;99.90;;;;;;5032676;28;20178;-65
2020/12/12 09:09:16;;;;;;;38.30;20.23;;;6.60;99.90;;;;;;5036413;28;20274;-65
2020/12/12 09:11:43;;;;;;;31.97;16.80;;;6.60;99.90;;;;;;5072374;28;20177;-65
2020/12/12 09:14:09;;;;;;;32.73;17.87;;;6.60;99.90;;;;;;5070877;28;20176;-65
2020/12/12 09:16:35;;;;;;;31.80;16.27;;;6.60;99.90;;;;;;5070687;28;20520;-65
2020/12/12 09:19:02;;;;;;;31.30;16.93;;;6.60;99.90;;;;;;5071901;28;20574;-65
2020/12/12 09:21:30;;;;;;;26.30;15.37;;;6.60;99.90;;;;;;5032103;28;20182;-65
2020/12/12 09:23:56;;;;;;;32.00;18.03;;;6.60;99.90;;;;;;5032530;28;20171;-65
2020/12/12 09:26:21;;;;;;;29.87;17.03;;;6.60;99.90;;;;;;5070210;28;20174;-65
2020/12/12 09:28:47;;;;;;;29.50;16.83;;;6.60;99.90;;;;;;5057367;28;20269;-65
2020/12/12 09:31:15;;;;;;;27.57;17.63;;;6.60;99.90;;;;;;5050518;28;20309;-65
2020/12/12 09:33:40;;;;;;;29.53;17.40;;;6.70;99.90;;;;;;5065705;28;20284;-66
2020/12/12 09:36:06;;;;;;;33.67;18.37;;;6.70;99.90;;;;;;5072074;28;20268;-65
2020/12/12 09:38:32;;;;;;;28.20;17.23;;;6.70;99.90;;;;;;5070113;28;20245;-65
2020/12/12 09:40:59;;;;;;;29.13;16.90;;;6.70;99.90;;;;;;5071381;28;20214;-65
2020/12/12 09:43:25;;;;;;;28.30;17.00;;;6.70;99.90;;;;;;5061273;28;20178;-65
2020/12/12 09:45:50;;;;;;;30.07;17.40;;;6.70;99.90;;;;;;5051592;28;20171;-65
2020/12/12 09:48:16;;;;;;;29.33;16.87;;;6.70;99.90;;;;;;5058346;28;20174;-65
2020/12/12 09:50:43;;;;;;;26.53;15.77;;;6.60;99.90;;;;;;5071379;28;20201;-65
2020/12/12 09:53:10;;;;;;;30.47;16.97;;;6.70;99.90;;;;;;5068868;28;20368;-65
2020/12/12 09:55:39;;;;;;;31.40;17.27;;;6.60;99.90;;;;;;5070530;28;20180;-65
2020/12/12 09:58:05;;;;;;;27.97;16.37;;;6.70;99.90;;;;;;5070298;28;20198;-65
2020/12/12 10:00:35;;;;;;;27.00;16.33;;;6.80;99.90;;;;;;5069648;28;20585;-65
2020/12/12 10:03:02;;;;;;;27.07;16.43;;;6.80;99.90;;;;;;5064281;28;20534;-65
2020/12/12 10:05:28;;;;;;;26.53;17.50;;;6.90;99.90;;;;;;5051577;28;20171;-65
2020/12/12 10:07:55;;;;;;;26.93;16.27;;;6.90;99.90;;;;;;5056770;28;20257;-65
2020/12/12 10:10:21;;;;;;;29.07;17.60;;;7.00;99.90;;;;;;5071185;28;20204;-65
2020/12/12 10:12:47;;;;;;;27.53;16.90;;;7.00;99.90;;;;;;5067525;28;20171;-65
2020/12/12 10:15:12;;;;;;;24.10;16.83;;;7.10;99.90;;;;;;5051443;28;20231;-65
2020/12/12 10:17:39;;;;;;;29.77;18.13;;;7.10;99.90;;;;;;5053470;28;20210;-65
2020/12/12 10:20:05;;;;;;;27.97;17.10;;;7.10;99.90;;;;;;5071217;28;20178;-65
2020/12/12 10:22:30;;;;;;;22.27;15.87;;;7.10;99.90;;;;;;5056222;28;20532;-65
2020/12/12 10:24:56;;;;;;;27.90;16.10;;;7.10;99.90;;;;;;5050122;28;20174;-65
2020/12/12 10:27:21;;;;;;;23.57;15.57;;;7.10;99.90;;;;;;5064438;28;20177;-65
2020/12/12 10:29:47;;;;;;;21.70;14.20;;;7.20;99.90;;;;;;5071303;28;20190;-65
2020/12/12 10:32:12;;;;;;;21.87;14.20;;;7.20;99.90;;;;;;5059233;28;20214;-65
2020/12/12 10:34:38;;;;;;;24.63;15.57;;;7.10;99.90;;;;;;5051934;28;20190;-65
2020/12/12 10:37:04;;;;;;;21.93;14.77;;;7.20;99.90;;;;;;5061374;28;20222;-65
2020/12/12 10:39:55;;;;;;;26.20;15.77;;;7.20;99.90;;;;;;5071025;28;20213;-65
2020/12/12 10:42:15;;;;;;;21.77;14.87;;;7.20;99.90;;;;;;5059251;28;20193;-65
2020/12/12 10:44:41;;;;;;;27.70;16.23;;;7.20;99.90;;;;;;5051143;28;20167;-65
2020/12/12 10:47:06;;;;;;;22.87;14.93;;;7.30;99.90;;;;;;5052258;28;20718;-65
2020/12/12 10:49:32;;;;;;;24.73;16.17;;;7.30;99.90;;;;;;5051038;28;20194;-65
2020/12/12 10:51:58;;;;;;;23.80;14.80;;;7.40;99.90;;;;;;5058231;28;20643;-65
2020/12/12 10:54:26;;;;;;;23.70;13.90;;;7.50;99.90;;;;;;5070975;28;20166;-64
2020/12/12 10:56:52;;;;;;;26.20;15.20;;;7.50;99.90;;;;;;5051438;28;20640;-65
2020/12/12 10:59:18;;;;;;;23.60;14.13;;;7.50;99.90;;;;;;5075110;22;20185;-66
2020/12/12 11:01:43;;;;;;;21.57;14.23;;;7.50;99.90;;;;;;5069567;28;20643;-65
2020/12/12 11:04:09;;;;;;;29.23;16.43;;;7.50;99.90;;;;;;5071044;28;20219;-65
2020/12/12 11:06:35;;;;;;;24.43;16.47;;;7.50;99.90;;;;;;5054963;28;20179;-66
2020/12/12 11:09:02;;;;;;;23.33;15.07;;;7.60;99.90;;;;;;5051051;28;20185;-66
2020/12/12 11:11:27;;;;;;;25.47;15.27;;;7.60;99.90;;;;;;5051562;28;20676;-66
2020/12/12 11:13:53;;;;;;;23.43;15.53;;;7.60;99.90;;;;;;5053931;28;20190;-66
2020/12/12 11:16:20;;;;;;;23.83;16.20;;;7.70;99.90;;;;;;5054502;28;20185;-67
2020/12/12 11:18:51;;;;;;;24.47;16.13;;;7.80;99.90;;;;;;5054919;28;20190;-65
2020/12/12 11:21:21;;;;;;;27.20;16.97;;;7.80;99.90;;;;;;5054552;28;20186;-66
2020/12/12 11:23:47;;;;;;;26.10;17.17;;;7.90;99.90;;;;;;5054958;28;20553;-66
2020/12/12 11:26:14;;;;;;;24.23;15.40;;;8.00;99.90;;;;;;5053839;28;20186;-66
2020/12/12 11:28:40;;;;;;;24.83;14.80;;;8.00;99.90;;;;;;5054811;28;20170;-63
2020/12/12 11:31:06;;;;;;;23.83;16.20;;;7.90;99.90;;;;;;5054282;28;20206;-66
2020/12/12 11:33:35;;;;;;;24.20;15.67;;;7.90;99.90;;;;;;5054517;28;20179;-66
2020/12/12 11:42:16;;;;;;;26.47;17.27;;;8.10;99.90;;;;;;5054577;28;20167;-66
2020/12/12 11:47:05;;;;;;;28.30;17.23;;;8.10;99.90;;;;;;5054690;28;20237;-65
2020/12/12 11:49:31;;;;;;;26.30;16.67;;;8.10;99.90;;;;;;5054374;28;20210;-65
2020/12/12 11:51:56;;;;;;;27.73;16.43;;;8.10;99.90;;;;;;5054092;28;20186;-66
2020/12/12 11:54:22;;;;;;;23.23;16.43;;;8.00;99.90;;;;;;5054427;28;20550;-66
2020/12/12 11:56:48;;;;;;;24.10;16.47;;;8.10;99.90;;;;;;5052506;28;20304;-66
2020/12/12 11:59:15;;;;;;;25.90;16.87;;;8.10;99.90;;;;;;5051430;28;20293;-66
2020/12/12 12:01:41;;;;;;;25.50;16.83;;;8.20;99.90;;;;;;5054235;28;20178;-64
2020/12/12 12:04:07;;;;;;;27.57;17.53;;;8.20;99.90;;;;;;5054094;28;20183;-66
2020/12/12 12:06:32;;;;;;;26.77;17.83;;;8.20;99.90;;;;;;5054077;28;20217;-66
2020/12/12 12:09:13;;;;;;;27.77;16.60;;;8.20;99.90;;;;;;5054067;28;20186;-66
2020/12/12 12:11:39;;;;;;;27.30;17.33;;;8.30;99.90;;;;;;5053110;28;20183;-66
2020/12/12 12:14:07;;;;;;;26.87;17.83;;;8.40;99.90;;;;;;5053914;28;20187;-66
2020/12/12 12:16:36;;;;;;;26.50;16.87;;;8.50;99.90;;;;;;5053587;28;20228;-66
2020/12/12 12:19:04;;;;;;;25.20;16.63;;;8.50;99.90;;;;;;5053660;28;20204;-66
2020/12/12 12:21:30;;;;;;;28.37;16.10;;;8.50;99.90;;;;;;5053404;28;20264;-66
2020/12/12 12:23:55;;;;;;;26.80;17.40;;;8.60;99.90;;;;;;5053218;28;20228;-66
2020/12/12 12:26:21;;;;;;;24.27;16.83;;;8.70;99.90;;;;;;5053549;28;20609;-67
2020/12/12 12:28:47;;;;;;;24.67;16.30;;;8.70;99.90;;;;;;5054057;28;20217;-66
2020/12/12 12:31:12;;;;;;;25.00;16.80;;;8.70;99.90;;;;;;5053288;28;20558;-66
2020/12/12 12:33:38;;;;;;;25.30;16.20;;;8.80;99.90;;;;;;5054057;28;20183;-66
2020/12/12 12:36:03;;;;;;;28.67;16.97;;;8.80;99.90;;;;;;5052298;28;20187;-66
2020/12/12 12:38:29;;;;;;;24.77;16.17;;;8.70;99.90;;;;;;5053734;28;20297;-66
2020/12/12 12:40:55;;;;;;;25.20;16.43;;;8.60;99.90;;;;;;5053440;28;20285;-66
2020/12/12 12:43:20;;;;;;;30.00;18.00;;;8.70;99.90;;;;;;5053246;28;20585;-66
2020/12/12 12:45:46;;;;;;;31.23;19.83;;;8.60;99.90;;;;;;5053961;28;20214;-64
2020/12/12 12:48:11;;;;;;;25.93;16.60;;;8.70;99.90;;;;;;5053215;28;20170;-66
2020/12/12 12:50:37;;;;;;;24.23;16.80;;;8.70;99.90;;;;;;5053630;28;20207;-66